Terminal Aerodrome Forecast
Issued by NWS

Current Version | Previous Version | Text Only | Print | Product List | Glossary On
Versions: 1 2 3 4 5 6 7 8 9 10 11 12 13 14 15 16 17 18 19 20 21 22 23 24 25 26 27 28
000
FTUS41 KCTP 201153
TAFLNS
TAF
KLNS 201153Z 2012/2112 26009KT P6SM SCT050
     FM201500 27015G20KT P6SM SCT050
     FM202100 26007KT P6SM FEW060=

USA.gov is the U.S. government's official web portal to all federal, state and local government web resources and services.